LGX01L EDNY-LICJ
Flight info
| Callsign | LGX01L |
|---|---|
| Flight time | 1h 33m |
| Altitude | 37000 |
| Route | BEMKI L607 XEBIX Y740 NATAG DCT LORLO DCT ADOSA DCT OSTEG DCT LURON |
| Aircraft | CL60/M-SADE3FGHIJ3J4J7P2RWXY/HB1D1 |
Departure
| Time | 2026-05-05 12:05 |
|---|---|
| Airport | Bodensee Airport Friedrichshafen (EDNY) |
Arrival
| Time | 2026-05-05 13:39 |
|---|---|
| Airport | Falcone–Borsellino Airport (LICJ) |
| Time | Latitude | Longitude | Altitude | Speed | Heading |
|---|---|---|---|---|---|
| 2026-05-05 11:43 | 47.67315 | 9.52248 | 1367 ft | 0 kts | 185° |
| 2026-05-05 12:01 | 47.67313 | 9.52247 | 1367 ft | 2 kts | 194° |
| 2026-05-05 12:02 | 47.67349 | 9.52200 | 1367 ft | 12 kts | 38° |
| 2026-05-05 12:02 | 47.67399 | 9.52316 | 1367 ft | 15 kts | 62° |
| 2026-05-05 12:02 | 47.67461 | 9.52473 | 1364 ft | 19 kts | 59° |
| 2026-05-05 12:02 | 47.67512 | 9.52587 | 1364 ft | 11 kts | 30° |
| 2026-05-05 12:03 | 47.67569 | 9.52569 | 1365 ft | 8 kts | 328° |
| 2026-05-05 12:03 | 47.67624 | 9.52518 | 1366 ft | 9 kts | 316° |
| 2026-05-05 12:03 | 47.67629 | 9.52430 | 1368 ft | 7 kts | 240° |
| 2026-05-05 12:03 | 47.67628 | 9.52427 | 1368 ft | 0 kts | 241° |
| 2026-05-05 12:04 | 47.67574 | 9.52286 | 1369 ft | 52 kts | 240° |
| 2026-05-05 12:05 | 47.67216 | 9.51362 | 1359 ft | 148 kts | 241° |
| 2026-05-05 12:05 | 47.66642 | 9.49907 | 1904 ft | 180 kts | 241° |
| 2026-05-05 12:05 | 47.65963 | 9.48218 | 2662 ft | 199 kts | 240° |
| 2026-05-05 12:05 | 47.65277 | 9.46443 | 3527 ft | 210 kts | 240° |
| 2026-05-05 12:06 | 47.64545 | 9.44553 | 4808 ft | 219 kts | 240° |
| 2026-05-05 12:06 | 47.63747 | 9.42675 | 6139 ft | 224 kts | 227° |
| 2026-05-05 12:06 | 47.62456 | 9.41585 | 7445 ft | 226 kts | 188° |
| 2026-05-05 12:06 | 47.60966 | 9.41915 | 8764 ft | 228 kts | 157° |
| 2026-05-05 12:07 | 47.59685 | 9.43239 | 10081 ft | 232 kts | 134° |
| 2026-05-05 12:07 | 47.58896 | 9.45269 | 11308 ft | 240 kts | 109° |
| 2026-05-05 12:07 | 47.58870 | 9.47743 | 12448 ft | 254 kts | 79° |
| 2026-05-05 12:07 | 47.59424 | 9.50235 | 13491 ft | 264 kts | 75° |
| 2026-05-05 12:08 | 47.60032 | 9.52808 | 14568 ft | 270 kts | 75° |
| 2026-05-05 12:08 | 47.60637 | 9.55395 | 15631 ft | 274 kts | 75° |
| 2026-05-05 12:08 | 47.61208 | 9.58113 | 16619 ft | 280 kts | 80° |
| 2026-05-05 12:08 | 47.61678 | 9.61080 | 16702 ft | 321 kts | 81° |
| 2026-05-05 12:09 | 47.62187 | 9.64495 | 16703 ft | 360 kts | 81° |
| 2026-05-05 12:09 | 47.62752 | 9.68254 | 16996 ft | 386 kts | 80° |
| 2026-05-05 12:09 | 47.63348 | 9.72194 | 17687 ft | 397 kts | 81° |
| 2026-05-05 12:09 | 47.63953 | 9.76198 | 18546 ft | 403 kts | 80° |
| 2026-05-05 12:10 | 47.64560 | 9.80224 | 19420 ft | 407 kts | 81° |
| 2026-05-05 12:10 | 47.65179 | 9.84338 | 20232 ft | 411 kts | 81° |
| 2026-05-05 12:10 | 47.65802 | 9.88495 | 21068 ft | 416 kts | 81° |
| 2026-05-05 12:10 | 47.66257 | 9.92660 | 21796 ft | 416 kts | 91° |
| 2026-05-05 12:11 | 47.65992 | 9.96887 | 22534 ft | 412 kts | 107° |
| 2026-05-05 12:11 | 47.64995 | 10.00869 | 23233 ft | 412 kts | 118° |
| 2026-05-05 12:11 | 47.63810 | 10.04753 | 23938 ft | 416 kts | 118° |
| 2026-05-05 12:11 | 47.62618 | 10.08684 | 24630 ft | 420 kts | 117° |
| 2026-05-05 12:12 | 47.61411 | 10.12655 | 25353 ft | 423 kts | 118° |
| 2026-05-05 12:12 | 47.60194 | 10.16657 | 25984 ft | 427 kts | 118° |
| 2026-05-05 12:12 | 47.58959 | 10.20713 | 26634 ft | 430 kts | 118° |
| 2026-05-05 12:12 | 47.57720 | 10.24778 | 27225 ft | 433 kts | 118° |
| 2026-05-05 12:13 | 47.56369 | 10.28740 | 27725 ft | 433 kts | 126° |
| 2026-05-05 12:13 | 47.54414 | 10.32144 | 28233 ft | 429 kts | 141° |
| 2026-05-05 12:13 | 47.52061 | 10.34843 | 28658 ft | 431 kts | 146° |
| 2026-05-05 12:13 | 47.49636 | 10.37487 | 29100 ft | 434 kts | 146° |
| 2026-05-05 12:14 | 47.47212 | 10.40137 | 29568 ft | 436 kts | 146° |
| 2026-05-05 12:14 | 47.44783 | 10.42791 | 30107 ft | 435 kts | 146° |
| 2026-05-05 12:14 | 47.42356 | 10.45423 | 30721 ft | 432 kts | 147° |
| 2026-05-05 12:14 | 47.39742 | 10.47479 | 31276 ft | 424 kts | 162° |
| 2026-05-05 12:15 | 47.36906 | 10.48438 | 31789 ft | 419 kts | 174° |
| 2026-05-05 12:15 | 47.33977 | 10.48838 | 32278 ft | 418 kts | 176° |
| 2026-05-05 12:15 | 47.31123 | 10.49245 | 32707 ft | 418 kts | 176° |
| 2026-05-05 12:15 | 47.28197 | 10.49667 | 33151 ft | 418 kts | 176° |
| 2026-05-05 12:16 | 47.25316 | 10.50081 | 33580 ft | 418 kts | 176° |
| 2026-05-05 12:16 | 47.22433 | 10.50494 | 33982 ft | 418 kts | 177° |
| 2026-05-05 12:16 | 47.19557 | 10.50906 | 34388 ft | 417 kts | 177° |
| 2026-05-05 12:16 | 47.16684 | 10.51316 | 34724 ft | 417 kts | 177° |
| 2026-05-05 12:17 | 47.13806 | 10.51726 | 35020 ft | 418 kts | 178° |
| 2026-05-05 12:17 | 47.10889 | 10.52141 | 35261 ft | 419 kts | 177° |
| 2026-05-05 12:17 | 47.07994 | 10.52552 | 35538 ft | 420 kts | 177° |
| 2026-05-05 12:17 | 47.05122 | 10.53200 | 35815 ft | 424 kts | 170° |
| 2026-05-05 12:18 | 47.02280 | 10.54405 | 36043 ft | 427 kts | 166° |
| 2026-05-05 12:18 | 46.99445 | 10.55700 | 36284 ft | 428 kts | 167° |
| 2026-05-05 12:18 | 46.96605 | 10.56988 | 36539 ft | 429 kts | 166° |
| 2026-05-05 12:18 | 46.93754 | 10.58280 | 36830 ft | 430 kts | 166° |
| 2026-05-05 12:19 | 46.90901 | 10.59569 | 36983 ft | 434 kts | 166° |
| 2026-05-05 12:19 | 46.88027 | 10.60865 | 36983 ft | 440 kts | 166° |
| 2026-05-05 12:19 | 46.82112 | 10.63530 | 36982 ft | 451 kts | 166° |
| 2026-05-05 12:20 | 46.76103 | 10.66233 | 36973 ft | 455 kts | 167° |
| 2026-05-05 12:20 | 46.70037 | 10.68735 | 36984 ft | 452 kts | 172° |
| 2026-05-05 12:21 | 46.63873 | 10.70738 | 36973 ft | 453 kts | 172° |
| 2026-05-05 12:21 | 46.57750 | 10.72731 | 36989 ft | 452 kts | 172° |
| 2026-05-05 12:22 | 46.51641 | 10.74717 | 36978 ft | 453 kts | 172° |
| 2026-05-05 12:22 | 46.45487 | 10.76714 | 36986 ft | 454 kts | 172° |
| 2026-05-05 12:23 | 46.39329 | 10.78710 | 36982 ft | 454 kts | 172° |
| 2026-05-05 12:23 | 46.33150 | 10.80708 | 36968 ft | 456 kts | 172° |
| 2026-05-05 12:24 | 46.26999 | 10.82695 | 36967 ft | 456 kts | 172° |
| 2026-05-05 12:24 | 46.20785 | 10.84697 | 36971 ft | 457 kts | 172° |
| 2026-05-05 12:25 | 46.14620 | 10.86679 | 36970 ft | 457 kts | 172° |
| 2026-05-05 12:25 | 46.08400 | 10.88675 | 36979 ft | 458 kts | 172° |
| 2026-05-05 12:26 | 46.02201 | 10.90659 | 36975 ft | 459 kts | 172° |
| 2026-05-05 12:26 | 45.95955 | 10.92655 | 36978 ft | 459 kts | 172° |
| 2026-05-05 12:27 | 45.89724 | 10.94641 | 36974 ft | 460 kts | 172° |
| 2026-05-05 12:27 | 45.83502 | 10.96620 | 36978 ft | 460 kts | 172° |
| 2026-05-05 12:28 | 45.77296 | 10.98589 | 36983 ft | 460 kts | 172° |
| 2026-05-05 12:28 | 45.71038 | 11.00571 | 36984 ft | 460 kts | 172° |
| 2026-05-05 12:29 | 45.64798 | 11.02535 | 36986 ft | 460 kts | 173° |
| 2026-05-05 12:29 | 45.58544 | 11.04106 | 36981 ft | 458 kts | 175° |
| 2026-05-05 12:30 | 45.52287 | 11.05621 | 36983 ft | 458 kts | 175° |
| 2026-05-05 12:30 | 45.45995 | 11.07141 | 36989 ft | 459 kts | 175° |
| 2026-05-05 12:31 | 45.39796 | 11.08637 | 36992 ft | 459 kts | 175° |
| 2026-05-05 12:31 | 45.33498 | 11.10154 | 36985 ft | 459 kts | 175° |
| 2026-05-05 12:32 | 45.27241 | 11.11659 | 36980 ft | 459 kts | 175° |
| 2026-05-05 12:32 | 45.20976 | 11.13162 | 36975 ft | 458 kts | 175° |
| 2026-05-05 12:33 | 45.14713 | 11.14940 | 36974 ft | 462 kts | 171° |
| 2026-05-05 12:33 | 45.08456 | 11.17127 | 36969 ft | 462 kts | 171° |
| 2026-05-05 12:34 | 45.02256 | 11.19281 | 36967 ft | 462 kts | 171° |
| 2026-05-05 12:34 | 44.95988 | 11.21452 | 36967 ft | 463 kts | 171° |
| 2026-05-05 12:35 | 44.89781 | 11.23594 | 36969 ft | 463 kts | 171° |
| 2026-05-05 12:35 | 44.83526 | 11.25747 | 36972 ft | 463 kts | 171° |
| 2026-05-05 12:36 | 44.77280 | 11.27891 | 36975 ft | 463 kts | 171° |
| 2026-05-05 12:36 | 44.71009 | 11.30038 | 36977 ft | 463 kts | 171° |
| 2026-05-05 12:37 | 44.64790 | 11.32162 | 36978 ft | 463 kts | 171° |
| 2026-05-05 12:37 | 44.58544 | 11.34289 | 36978 ft | 463 kts | 171° |
| 2026-05-05 12:38 | 44.52281 | 11.36418 | 36975 ft | 463 kts | 172° |
| 2026-05-05 12:38 | 44.46019 | 11.38541 | 36977 ft | 463 kts | 172° |
| 2026-05-05 12:39 | 44.39765 | 11.40656 | 36979 ft | 463 kts | 172° |
| 2026-05-05 12:39 | 44.33538 | 11.42757 | 36980 ft | 464 kts | 172° |
| 2026-05-05 12:40 | 44.27268 | 11.44869 | 36976 ft | 464 kts | 172° |
| 2026-05-05 12:40 | 44.20995 | 11.46976 | 36970 ft | 464 kts | 172° |
| 2026-05-05 12:41 | 44.14715 | 11.49082 | 36980 ft | 464 kts | 172° |
| 2026-05-05 12:41 | 44.08486 | 11.51166 | 36977 ft | 463 kts | 172° |
| 2026-05-05 12:42 | 44.02219 | 11.53257 | 36977 ft | 464 kts | 172° |
| 2026-05-05 12:42 | 43.95960 | 11.55341 | 36982 ft | 464 kts | 172° |
| 2026-05-05 12:43 | 43.89678 | 11.57429 | 36983 ft | 464 kts | 172° |
| 2026-05-05 12:43 | 43.83423 | 11.59502 | 36985 ft | 465 kts | 172° |
| 2026-05-05 12:44 | 43.77124 | 11.61586 | 36992 ft | 465 kts | 172° |
| 2026-05-05 12:44 | 43.70851 | 11.63657 | 36991 ft | 465 kts | 172° |
| 2026-05-05 12:45 | 43.64592 | 11.65719 | 36992 ft | 464 kts | 172° |
| 2026-05-05 12:45 | 43.58321 | 11.67781 | 36993 ft | 464 kts | 172° |
| 2026-05-05 12:46 | 43.52057 | 11.69835 | 37001 ft | 463 kts | 172° |
| 2026-05-05 12:46 | 43.45786 | 11.71888 | 36997 ft | 463 kts | 172° |
| 2026-05-05 12:47 | 43.39543 | 11.73926 | 37003 ft | 463 kts | 172° |
| 2026-05-05 12:47 | 43.33287 | 11.75965 | 36998 ft | 464 kts | 172° |
| 2026-05-05 12:48 | 43.27038 | 11.77996 | 37000 ft | 465 kts | 172° |
| 2026-05-05 12:48 | 43.20743 | 11.80039 | 37005 ft | 465 kts | 172° |
| 2026-05-05 12:49 | 43.14446 | 11.82078 | 37012 ft | 465 kts | 172° |
| 2026-05-05 12:49 | 43.08144 | 11.84114 | 37014 ft | 465 kts | 172° |
| 2026-05-05 12:50 | 43.01884 | 11.86133 | 37016 ft | 465 kts | 172° |
| 2026-05-05 12:50 | 42.95584 | 11.88160 | 37018 ft | 465 kts | 172° |
| 2026-05-05 12:51 | 42.89331 | 11.90168 | 37020 ft | 464 kts | 172° |
| 2026-05-05 12:51 | 42.83064 | 11.92176 | 37021 ft | 464 kts | 172° |
| 2026-05-05 12:52 | 42.76776 | 11.94186 | 37034 ft | 465 kts | 172° |
| 2026-05-05 12:52 | 42.70457 | 11.96202 | 37037 ft | 466 kts | 172° |
| 2026-05-05 12:53 | 42.64184 | 11.98199 | 37043 ft | 466 kts | 172° |
| 2026-05-05 12:53 | 42.57880 | 12.00203 | 37044 ft | 465 kts | 173° |
| 2026-05-05 12:54 | 42.48432 | 12.03197 | 37051 ft | 466 kts | 172° |
| 2026-05-05 12:55 | 42.42127 | 12.05189 | 37054 ft | 466 kts | 172° |
| 2026-05-05 12:55 | 42.35812 | 12.07181 | 37056 ft | 467 kts | 173° |
| 2026-05-05 12:56 | 42.29499 | 12.09168 | 37057 ft | 467 kts | 172° |
| 2026-05-05 12:56 | 42.23225 | 12.11139 | 37056 ft | 467 kts | 173° |
| 2026-05-05 12:57 | 42.16893 | 12.13124 | 37053 ft | 467 kts | 173° |
| 2026-05-05 12:57 | 42.10556 | 12.15107 | 37057 ft | 467 kts | 172° |
| 2026-05-05 12:58 | 42.04244 | 12.17077 | 37059 ft | 467 kts | 172° |
| 2026-05-05 12:58 | 41.97954 | 12.19037 | 37062 ft | 467 kts | 172° |
| 2026-05-05 12:59 | 41.91649 | 12.20997 | 37061 ft | 467 kts | 173° |
| 2026-05-05 12:59 | 41.85293 | 12.22969 | 37061 ft | 468 kts | 172° |
| 2026-05-05 13:00 | 41.75784 | 12.25912 | 37060 ft | 468 kts | 173° |
| 2026-05-05 13:01 | 41.63142 | 12.29811 | 37062 ft | 468 kts | 173° |
| 2026-05-05 13:01 | 41.56779 | 12.31767 | 37062 ft | 469 kts | 173° |
| 2026-05-05 13:02 | 41.50450 | 12.33710 | 37061 ft | 470 kts | 173° |
| 2026-05-05 13:02 | 41.44037 | 12.35673 | 37055 ft | 470 kts | 173° |
| 2026-05-05 13:03 | 41.37701 | 12.37610 | 37369 ft | 471 kts | 173° |
| 2026-05-05 13:03 | 41.34498 | 12.38586 | 37123 ft | 473 kts | 173° |
| 2026-05-05 13:03 | 41.31289 | 12.39566 | 37084 ft | 470 kts | 173° |
| 2026-05-05 13:04 | 41.24951 | 12.41497 | 37061 ft | 467 kts | 173° |
| 2026-05-05 13:04 | 41.18630 | 12.43416 | 37057 ft | 468 kts | 173° |
| 2026-05-05 13:05 | 41.12304 | 12.45333 | 37059 ft | 468 kts | 173° |
| 2026-05-05 13:05 | 41.05961 | 12.47252 | 37060 ft | 469 kts | 173° |
| 2026-05-05 13:06 | 40.99602 | 12.49172 | 37061 ft | 470 kts | 173° |
| 2026-05-05 13:06 | 40.93229 | 12.51092 | 37061 ft | 470 kts | 173° |
| 2026-05-05 13:07 | 40.86851 | 12.53011 | 37061 ft | 470 kts | 173° |
| 2026-05-05 13:07 | 40.80513 | 12.54913 | 37061 ft | 470 kts | 173° |
| 2026-05-05 13:08 | 40.74118 | 12.56828 | 37064 ft | 471 kts | 173° |
| 2026-05-05 13:08 | 40.67742 | 12.58734 | 37060 ft | 472 kts | 173° |
| 2026-05-05 13:09 | 40.61314 | 12.60652 | 37058 ft | 473 kts | 173° |
| 2026-05-05 13:09 | 40.54937 | 12.62552 | 37058 ft | 473 kts | 173° |
| 2026-05-05 13:10 | 40.48530 | 12.64456 | 37059 ft | 473 kts | 173° |
| 2026-05-05 13:10 | 40.42098 | 12.66364 | 37061 ft | 473 kts | 173° |
| 2026-05-05 13:11 | 40.35703 | 12.68258 | 37060 ft | 473 kts | 173° |
| 2026-05-05 13:11 | 40.29298 | 12.70150 | 37064 ft | 474 kts | 173° |
| 2026-05-05 13:12 | 40.22860 | 12.72049 | 37068 ft | 474 kts | 173° |
| 2026-05-05 13:12 | 40.16431 | 12.73941 | 37067 ft | 475 kts | 173° |
| 2026-05-05 13:13 | 40.09968 | 12.75839 | 37068 ft | 475 kts | 173° |
| 2026-05-05 13:13 | 40.03540 | 12.77724 | 37064 ft | 475 kts | 173° |
| 2026-05-05 13:14 | 39.97088 | 12.79612 | 37063 ft | 476 kts | 173° |
| 2026-05-05 13:14 | 39.90632 | 12.81498 | 37062 ft | 476 kts | 173° |
| 2026-05-05 13:15 | 39.84200 | 12.83373 | 37066 ft | 476 kts | 173° |
| 2026-05-05 13:15 | 39.77719 | 12.85258 | 37063 ft | 476 kts | 173° |
| 2026-05-05 13:16 | 39.71270 | 12.87131 | 36580 ft | 474 kts | 173° |
| 2026-05-05 13:16 | 39.68079 | 12.88059 | 35985 ft | 467 kts | 173° |
| 2026-05-05 13:16 | 39.64959 | 12.88966 | 35406 ft | 461 kts | 173° |
| 2026-05-05 13:17 | 39.61829 | 12.89873 | 34828 ft | 459 kts | 173° |
| 2026-05-05 13:17 | 39.58732 | 12.90768 | 34259 ft | 459 kts | 173° |
| 2026-05-05 13:17 | 39.55642 | 12.91659 | 33677 ft | 460 kts | 173° |
| 2026-05-05 13:17 | 39.52513 | 12.92561 | 33060 ft | 460 kts | 173° |
| 2026-05-05 13:18 | 39.49387 | 12.93462 | 32455 ft | 460 kts | 173° |
| 2026-05-05 13:18 | 39.46299 | 12.94351 | 31848 ft | 460 kts | 173° |
| 2026-05-05 13:18 | 39.43158 | 12.95255 | 31234 ft | 461 kts | 173° |
| 2026-05-05 13:18 | 39.40033 | 12.96153 | 30620 ft | 461 kts | 172° |
| 2026-05-05 13:19 | 39.36930 | 12.97044 | 30018 ft | 462 kts | 172° |
| 2026-05-05 13:19 | 39.33783 | 12.97947 | 29402 ft | 462 kts | 172° |
| 2026-05-05 13:19 | 39.30632 | 12.98850 | 28784 ft | 462 kts | 172° |
| 2026-05-05 13:19 | 39.27535 | 12.99739 | 28180 ft | 458 kts | 172° |
| 2026-05-05 13:20 | 39.24416 | 13.00633 | 27572 ft | 453 kts | 172° |
| 2026-05-05 13:20 | 39.21380 | 13.01503 | 26974 ft | 448 kts | 172° |
| 2026-05-05 13:20 | 39.18338 | 13.02373 | 26381 ft | 444 kts | 172° |
| 2026-05-05 13:20 | 39.15374 | 13.03220 | 25801 ft | 439 kts | 172° |
| 2026-05-05 13:21 | 39.12415 | 13.04065 | 25218 ft | 435 kts | 172° |
| 2026-05-05 13:21 | 39.09453 | 13.04910 | 24642 ft | 430 kts | 172° |
| 2026-05-05 13:21 | 39.06553 | 13.05736 | 24075 ft | 426 kts | 172° |
| 2026-05-05 13:21 | 39.03692 | 13.06551 | 23514 ft | 422 kts | 172° |
| 2026-05-05 13:22 | 39.00826 | 13.07366 | 22961 ft | 418 kts | 172° |
| 2026-05-05 13:22 | 38.98031 | 13.08160 | 22402 ft | 415 kts | 172° |
| 2026-05-05 13:22 | 38.95202 | 13.08962 | 21856 ft | 412 kts | 171° |
| 2026-05-05 13:22 | 38.92426 | 13.09749 | 21306 ft | 409 kts | 171° |
| 2026-05-05 13:23 | 38.89667 | 13.10486 | 20774 ft | 402 kts | 175° |
| 2026-05-05 13:23 | 38.86917 | 13.10536 | 20213 ft | 390 kts | 191° |
| 2026-05-05 13:23 | 38.84340 | 13.09649 | 19628 ft | 377 kts | 206° |
| 2026-05-05 13:23 | 38.82122 | 13.08028 | 18924 ft | 369 kts | 218° |
| 2026-05-05 13:24 | 38.80075 | 13.06096 | 18158 ft | 366 kts | 219° |
| 2026-05-05 13:24 | 38.78036 | 13.04167 | 17427 ft | 363 kts | 219° |
| 2026-05-05 13:24 | 38.76022 | 13.02268 | 16899 ft | 355 kts | 219° |
| 2026-05-05 13:24 | 38.74084 | 13.00442 | 16428 ft | 346 kts | 219° |
| 2026-05-05 13:25 | 38.72172 | 12.98641 | 15960 ft | 338 kts | 219° |
| 2026-05-05 13:25 | 38.70299 | 12.96878 | 15516 ft | 333 kts | 219° |
| 2026-05-05 13:25 | 38.68444 | 12.95131 | 15074 ft | 330 kts | 219° |
| 2026-05-05 13:25 | 38.66603 | 12.93400 | 14644 ft | 325 kts | 219° |
| 2026-05-05 13:26 | 38.64803 | 12.91708 | 14207 ft | 321 kts | 219° |
| 2026-05-05 13:26 | 38.63015 | 12.90029 | 13785 ft | 314 kts | 219° |
| 2026-05-05 13:26 | 38.61274 | 12.88395 | 13373 ft | 309 kts | 219° |
| 2026-05-05 13:26 | 38.59566 | 12.86791 | 12978 ft | 305 kts | 219° |
| 2026-05-05 13:27 | 38.57851 | 12.85183 | 12555 ft | 300 kts | 219° |
| 2026-05-05 13:27 | 38.56191 | 12.83627 | 12170 ft | 295 kts | 219° |
| 2026-05-05 13:27 | 38.54555 | 12.82095 | 11775 ft | 290 kts | 219° |
| 2026-05-05 13:27 | 38.52952 | 12.80594 | 11405 ft | 285 kts | 219° |
| 2026-05-05 13:28 | 38.51351 | 12.79096 | 11009 ft | 281 kts | 219° |
| 2026-05-05 13:28 | 38.49794 | 12.77639 | 10652 ft | 276 kts | 219° |
| 2026-05-05 13:28 | 38.48259 | 12.76204 | 10282 ft | 273 kts | 219° |
| 2026-05-05 13:28 | 38.46744 | 12.74789 | 9934 ft | 268 kts | 219° |
| 2026-05-05 13:29 | 38.45238 | 12.73386 | 9580 ft | 265 kts | 218° |
| 2026-05-05 13:29 | 38.43609 | 12.72352 | 9196 ft | 267 kts | 199° |
| 2026-05-05 13:29 | 38.41742 | 12.72147 | 8808 ft | 270 kts | 176° |
| 2026-05-05 13:29 | 38.39950 | 12.72850 | 8405 ft | 272 kts | 158° |
| 2026-05-05 13:30 | 38.38261 | 12.73866 | 8027 ft | 270 kts | 158° |
| 2026-05-05 13:30 | 38.36560 | 12.74883 | 7680 ft | 265 kts | 157° |
| 2026-05-05 13:30 | 38.34920 | 12.75862 | 7332 ft | 262 kts | 157° |
| 2026-05-05 13:30 | 38.33271 | 12.76844 | 6987 ft | 259 kts | 157° |
| 2026-05-05 13:31 | 38.31656 | 12.77798 | 6591 ft | 258 kts | 157° |
| 2026-05-05 13:31 | 38.30010 | 12.78768 | 6218 ft | 255 kts | 156° |
| 2026-05-05 13:31 | 38.28428 | 12.79701 | 5896 ft | 251 kts | 156° |
| 2026-05-05 13:31 | 38.26851 | 12.80631 | 5565 ft | 247 kts | 156° |
| 2026-05-05 13:32 | 38.25297 | 12.81545 | 5236 ft | 243 kts | 156° |
| 2026-05-05 13:32 | 38.23778 | 12.82388 | 4924 ft | 240 kts | 158° |
| 2026-05-05 13:32 | 38.22241 | 12.83221 | 4610 ft | 236 kts | 158° |
| 2026-05-05 13:32 | 38.20737 | 12.84038 | 4300 ft | 233 kts | 158° |
| 2026-05-05 13:33 | 38.19253 | 12.84843 | 3994 ft | 230 kts | 158° |
| 2026-05-05 13:33 | 38.17802 | 12.85629 | 3700 ft | 225 kts | 158° |
| 2026-05-05 13:33 | 38.16410 | 12.86383 | 3406 ft | 212 kts | 158° |
| 2026-05-05 13:33 | 38.15092 | 12.87097 | 3136 ft | 200 kts | 158° |
| 2026-05-05 13:34 | 38.13846 | 12.87772 | 2878 ft | 190 kts | 158° |
| 2026-05-05 13:34 | 38.12668 | 12.88484 | 2616 ft | 186 kts | 146° |
| 2026-05-05 13:34 | 38.11834 | 12.89734 | 2335 ft | 186 kts | 114° |
| 2026-05-05 13:34 | 38.11670 | 12.91335 | 2273 ft | 187 kts | 82° |
| 2026-05-05 13:35 | 38.12088 | 12.92902 | 2282 ft | 189 kts | 67° |
| 2026-05-05 13:35 | 38.12629 | 12.94435 | 2279 ft | 189 kts | 67° |
| 2026-05-05 13:35 | 38.13150 | 12.95960 | 2127 ft | 185 kts | 68° |
| 2026-05-05 13:35 | 38.13631 | 12.97380 | 1866 ft | 164 kts | 67° |
| 2026-05-05 13:36 | 38.14042 | 12.98598 | 1772 ft | 145 kts | 67° |
| 2026-05-05 13:36 | 38.14430 | 12.99748 | 1524 ft | 140 kts | 67° |
| 2026-05-05 13:36 | 38.14809 | 13.00871 | 1344 ft | 135 kts | 67° |
| 2026-05-05 13:36 | 38.15173 | 13.01950 | 1175 ft | 133 kts | 67° |
| 2026-05-05 13:37 | 38.15535 | 13.03025 | 1001 ft | 130 kts | 66° |
| 2026-05-05 13:37 | 38.15886 | 13.04065 | 852 ft | 127 kts | 66° |
| 2026-05-05 13:37 | 38.16248 | 13.05081 | 698 ft | 126 kts | 64° |
| 2026-05-05 13:37 | 38.16596 | 13.06089 | 528 ft | 124 kts | 67° |
| 2026-05-05 13:38 | 38.16923 | 13.07093 | 360 ft | 122 kts | 66° |
| 2026-05-05 13:38 | 38.17249 | 13.08078 | 186 ft | 120 kts | 66° |
| 2026-05-05 13:38 | 38.17565 | 13.09036 | 67 ft | 113 kts | 66° |
| 2026-05-05 13:38 | 38.17834 | 13.09839 | 71 ft | 81 kts | 66° |
| 2026-05-05 13:39 | 38.17964 | 13.10223 | 80 ft | 15 kts | 66° |
| 2026-05-05 13:39 | 38.18018 | 13.10220 | 78 ft | 16 kts | 278° |
| 2026-05-05 13:39 | 38.18036 | 13.10039 | 70 ft | 17 kts | 277° |
| 2026-05-05 13:39 | 38.18071 | 13.09954 | 64 ft | 12 kts | 45° |
| 2026-05-05 13:40 | 38.18116 | 13.10070 | 66 ft | 15 kts | 65° |
| 2026-05-05 13:40 | 38.18162 | 13.10202 | 68 ft | 18 kts | 70° |
| 2026-05-05 13:40 | 38.18208 | 13.10343 | 71 ft | 10 kts | 56° |
| 2026-05-05 13:40 | 38.18272 | 13.10353 | 68 ft | 11 kts | 331° |
| 2026-05-05 13:41 | 38.18366 | 13.10297 | 61 ft | 8 kts | 337° |
| 2026-05-05 13:41 | 38.18389 | 13.10283 | 59 ft | 5 kts | 318° |
| 2026-05-05 13:41 | 38.18374 | 13.10212 | 59 ft | 11 kts | 246° |
| 2026-05-05 13:41 | 38.18366 | 13.10189 | 59 ft | 0 kts | 246° |